createdAt,value
2023-03-30T00:03:55.643Z,8.80
2023-03-30T00:08:07.883Z,8.70
2023-03-30T00:12:11.127Z,8.70
2023-03-30T00:16:16.201Z,8.60
2023-03-30T00:20:20.700Z,8.50
2023-03-30T00:24:29.490Z,8.50
2023-03-30T00:28:45.262Z,8.50
2023-03-30T00:32:48.482Z,8.50
2023-03-30T00:36:54.605Z,8.50
2023-03-30T00:41:04.699Z,8.40
2023-03-30T00:45:20.058Z,8.40
2023-03-30T00:49:23.109Z,8.30
2023-03-30T00:53:37.128Z,8.30
2023-03-30T00:57:44.363Z,8.20
2023-03-30T01:01:50.177Z,8.10
2023-03-30T01:05:57.810Z,8.10
2023-03-30T01:10:06.033Z,8.10
2023-03-30T01:14:19.412Z,8.10
2023-03-30T01:18:37.623Z,8.00
2023-03-30T01:23:14.067Z,8.00
2023-03-30T01:27:50.576Z,8.00
2023-03-30T01:32:12.054Z,8.00
2023-03-30T01:36:41.888Z,8.00
2023-03-30T01:40:59.045Z,8.00
2023-03-30T01:45:11.467Z,8.00
2023-03-30T01:49:22.712Z,8.10
2023-03-30T01:53:32.042Z,8.10
2023-03-30T01:57:43.003Z,8.10
2023-03-30T02:01:54.564Z,8.10
2023-03-30T02:06:04.068Z,8.20
2023-03-30T02:10:10.868Z,8.20
2023-03-30T02:14:19.323Z,8.20
2023-03-30T02:18:22.579Z,8.20
2023-03-30T02:22:30.549Z,8.10
2023-03-30T02:26:38.711Z,8.10
2023-03-30T02:30:51.587Z,8.10
2023-03-30T02:35:18.960Z,8.10
2023-03-30T02:39:33.917Z,8.00
2023-03-30T02:43:47.157Z,8.00
2023-03-30T02:48:06.131Z,8.00
2023-03-30T02:52:16.378Z,8.10
2023-03-30T02:56:27.094Z,8.10
2023-03-30T03:04:46.623Z,8.20
2023-03-30T03:08:50.797Z,8.30
2023-03-30T03:12:53.827Z,8.40
2023-03-30T03:17:09.857Z,8.40
2023-03-30T03:21:15.466Z,8.50
2023-03-30T03:25:18.624Z,8.60
2023-03-30T03:29:25.568Z,8.60
2023-03-30T03:33:31.945Z,8.60
2023-03-30T03:37:37.704Z,8.60
2023-03-30T03:41:49.465Z,8.60
2023-03-30T03:45:54.515Z,8.60
2023-03-30T03:49:57.519Z,8.50
2023-03-30T03:54:02.208Z,8.50
2023-03-30T03:58:05.905Z,8.50
2023-03-30T04:02:08.996Z,8.50
2023-03-30T04:06:12.518Z,8.50
2023-03-30T04:10:18.177Z,8.60
2023-03-30T04:14:21.202Z,8.60
2023-03-30T04:18:24.343Z,8.60
2023-03-30T04:22:27.504Z,8.70
2023-03-30T04:26:33.800Z,8.70
2023-03-30T04:30:36.862Z,8.70
2023-03-30T04:34:54.841Z,8.80
2023-03-30T04:39:06.269Z,8.80
2023-03-30T04:43:16.760Z,8.80
2023-03-30T04:47:19.777Z,8.80
2023-03-30T04:51:25.625Z,8.80
2023-03-30T04:55:31.286Z,8.90
2023-03-30T04:59:35.982Z,9.10
2023-03-30T05:03:39.886Z,9.10
2023-03-30T05:07:44.058Z,9.20
2023-03-30T05:11:47.079Z,9.20
2023-03-30T05:15:58.443Z,9.30
2023-03-30T05:20:02.273Z,9.40
2023-03-30T05:24:06.947Z,9.50
2023-03-30T05:28:14.233Z,9.70
2023-03-30T05:32:18.590Z,9.80
2023-03-30T05:36:28.490Z,10.10
2023-03-30T05:40:31.777Z,10.30
2023-03-30T05:44:35.611Z,10.60
2023-03-30T05:48:40.175Z,11.00
2023-03-30T05:52:43.548Z,11.30
2023-03-30T05:56:46.664Z,11.50
2023-03-30T06:00:54.284Z,11.60
2023-03-30T06:05:01.763Z,11.60
2023-03-30T06:09:06.646Z,11.70
2023-03-30T06:13:16.941Z,11.80
2023-03-30T06:17:33.787Z,11.80
2023-03-30T06:21:42.271Z,11.80
2023-03-30T06:25:52.871Z,11.90
2023-03-30T06:29:58.754Z,12.00
2023-03-30T06:34:02.326Z,12.00
2023-03-30T06:38:07.647Z,12.00
2023-03-30T06:42:15.067Z,12.00
2023-03-30T06:46:18.499Z,12.00
2023-03-30T06:50:21.788Z,12.00
2023-03-30T06:54:28.398Z,12.10
2023-03-30T06:58:32.194Z,12.40
2023-03-30T07:02:35.205Z,12.40
2023-03-30T07:06:40.611Z,12.60
2023-03-30T07:10:45.053Z,12.50
2023-03-30T07:14:55.533Z,12.30
2023-03-30T07:19:03.961Z,12.20
2023-03-30T07:23:07.385Z,12.20
2023-03-30T07:27:14.103Z,12.30
2023-03-30T07:31:18.431Z,12.20
2023-03-30T07:35:23.686Z,12.30
2023-03-30T07:39:26.894Z,12.20
2023-03-30T07:43:32.624Z,12.30
2023-03-30T07:47:38.028Z,12.40
2023-03-30T07:51:43.868Z,12.50
2023-03-30T07:55:46.915Z,12.30
2023-03-30T07:59:51.660Z,12.20
2023-03-30T08:03:55.791Z,12.10
2023-03-30T08:08:01.883Z,11.90
2023-03-30T08:12:14.121Z,11.80
2023-03-30T08:16:20.182Z,11.80
2023-03-30T08:20:23.323Z,11.80
2023-03-30T08:24:29.253Z,11.80
2023-03-30T08:28:32.248Z,11.70
2023-03-30T08:32:36.701Z,11.70
2023-03-30T08:36:41.880Z,11.60
2023-03-30T08:40:45.536Z,11.60
2023-03-30T08:44:56.242Z,11.50
2023-03-30T08:49:06.516Z,11.60
2023-03-30T08:53:14.775Z,11.80
2023-03-30T08:57:30.008Z,12.20
2023-03-30T09:01:43.759Z,12.30
2023-03-30T09:05:53.980Z,12.30
2023-03-30T09:10:01.673Z,12.50
2023-03-30T09:14:07.355Z,12.60
2023-03-30T09:18:16.752Z,12.50
2023-03-30T09:22:22.103Z,12.50
2023-03-30T09:26:35.054Z,12.50
2023-03-30T09:30:42.146Z,12.50
2023-03-30T09:34:48.221Z,12.30
2023-03-30T09:38:54.135Z,12.10
2023-03-30T09:43:09.112Z,11.90
2023-03-30T09:47:24.028Z,11.80
2023-03-30T09:51:31.274Z,11.60
2023-03-30T09:55:39.243Z,11.60
2023-03-30T09:59:45.676Z,11.70
2023-03-30T10:04:11.815Z,12.00
2023-03-30T10:08:25.044Z,12.20
2023-03-30T10:12:31.605Z,12.30
2023-03-30T10:16:42.389Z,12.40
2023-03-30T10:20:53.223Z,12.40
2023-03-30T10:25:00.837Z,12.50
2023-03-30T10:29:11.033Z,12.50
2023-03-30T10:33:14.221Z,12.60
2023-03-30T10:37:21.271Z,12.80
2023-03-30T10:41:25.433Z,13.00
2023-03-30T10:45:36.190Z,13.10
2023-03-30T10:49:49.965Z,13.40
2023-03-30T10:54:06.002Z,14.00
2023-03-30T10:58:19.720Z,14.40
2023-03-30T11:02:30.431Z,14.30
2023-03-30T11:06:41.117Z,14.30
2023-03-30T11:10:49.036Z,14.50
2023-03-30T11:14:57.711Z,14.40
2023-03-30T11:19:08.320Z,14.20
2023-03-30T11:23:25.437Z,14.00
2023-03-30T11:27:31.713Z,13.90
2023-03-30T11:31:48.348Z,13.90
2023-03-30T11:35:59.246Z,13.80
2023-03-30T11:40:17.779Z,13.80
2023-03-30T11:44:22.829Z,13.60
2023-03-30T11:49:00.224Z,13.60
2023-03-30T11:53:29.470Z,13.60
2023-03-30T11:57:39.950Z,13.50
2023-03-30T12:01:55.917Z,13.60
2023-03-30T12:06:25.059Z,13.70
2023-03-30T12:10:44.192Z,13.90
2023-03-30T12:15:02.435Z,14.00
2023-03-30T12:19:13.033Z,14.20
2023-03-30T12:23:30.594Z,14.10
2023-03-30T12:27:38.843Z,14.20
2023-03-30T12:32:23.204Z,14.30
2023-03-30T12:36:38.413Z,14.30
2023-03-30T12:40:47.432Z,14.40
2023-03-30T12:45:03.028Z,14.40
2023-03-30T12:49:18.051Z,14.30
2023-03-30T12:53:39.726Z,14.30
2023-03-30T12:58:01.511Z,14.50
2023-03-30T13:02:55.191Z,14.70
2023-03-30T13:07:03.351Z,14.90
2023-03-30T13:11:14.198Z,14.90
2023-03-30T13:15:47.825Z,15.00
2023-03-30T13:20:28.199Z,15.30
2023-03-30T13:24:46.562Z,15.40
2023-03-30T13:29:11.483Z,15.40
2023-03-30T13:33:20.616Z,15.50
2023-03-30T13:37:36.655Z,15.60
2023-03-30T13:41:51.807Z,15.40
2023-03-30T13:46:15.572Z,15.60
2023-03-30T13:50:26.538Z,15.90
2023-03-30T13:54:35.478Z,15.90
2023-03-30T13:58:44.264Z,15.80
2023-03-30T14:02:49.690Z,15.90
2023-03-30T14:06:54.818Z,15.90
2023-03-30T14:11:00.888Z,15.80
2023-03-30T14:15:17.597Z,15.50
2023-03-30T14:19:24.968Z,15.40
2023-03-30T14:23:35.325Z,15.30
2023-03-30T14:27:43.141Z,15.40
2023-03-30T14:32:04.509Z,15.50
2023-03-30T14:36:12.925Z,15.60
2023-03-30T14:40:19.929Z,15.60
2023-03-30T14:44:25.065Z,15.60
2023-03-30T14:48:32.161Z,15.50
2023-03-30T14:52:41.124Z,15.40
2023-03-30T14:56:46.413Z,15.40
2023-03-30T15:00:49.579Z,15.20
2023-03-30T15:04:57.831Z,15.10
2023-03-30T15:09:02.883Z,15.00
2023-03-30T15:13:13.631Z,14.90
2023-03-30T15:17:24.438Z,14.90
2023-03-30T15:21:30.384Z,14.90
2023-03-30T15:25:35.655Z,15.00
2023-03-30T15:29:41.092Z,15.00
2023-03-30T15:33:50.790Z,15.30
2023-03-30T15:37:58.647Z,15.70
2023-03-30T15:42:05.758Z,15.90
2023-03-30T15:46:14.244Z,15.70
2023-03-30T15:50:19.113Z,15.40
2023-03-30T15:54:38.696Z,15.10
2023-03-30T15:58:43.987Z,14.40
2023-03-30T16:02:49.369Z,14.00
2023-03-30T16:06:58.889Z,13.70
2023-03-30T16:11:06.987Z,13.50
2023-03-30T16:15:14.089Z,13.30
2023-03-30T16:19:24.642Z,13.30
2023-03-30T16:23:27.944Z,13.30
2023-03-30T16:27:38.894Z,13.20
2023-03-30T16:31:45.020Z,13.20
2023-03-30T16:35:48.073Z,13.10
2023-03-30T16:39:51.493Z,13.10
2023-03-30T16:43:56.061Z,13.10
2023-03-30T16:47:59.413Z,13.00
2023-03-30T16:52:03.068Z,13.00
2023-03-30T16:56:07.914Z,12.90
2023-03-30T17:00:30.401Z,12.80
2023-03-30T17:04:35.587Z,12.80
2023-03-30T17:08:40.944Z,12.70
2023-03-30T17:12:47.085Z,12.60
2023-03-30T17:16:51.695Z,12.50
2023-03-30T17:21:00.382Z,12.40
2023-03-30T17:25:03.397Z,12.30
2023-03-30T17:29:08.816Z,12.20
2023-03-30T17:33:13.169Z,12.10
2023-03-30T17:37:16.570Z,12.10
2023-03-30T17:41:20.801Z,12.10
2023-03-30T17:45:29.414Z,12.00
2023-03-30T17:49:34.042Z,11.90
2023-03-30T17:53:39.014Z,11.80
2023-03-30T17:57:45.733Z,11.80
2023-03-30T18:01:48.988Z,11.70
2023-03-30T18:05:55.241Z,11.60
2023-03-30T18:09:59.459Z,11.50
2023-03-30T18:14:05.935Z,11.50
2023-03-30T18:18:13.818Z,11.40
2023-03-30T18:22:21.023Z,11.40
2023-03-30T18:26:26.125Z,11.30
2023-03-30T18:30:32.070Z,11.30
2023-03-30T18:34:38.073Z,11.30
2023-03-30T18:38:45.253Z,11.30
2023-03-30T18:42:51.306Z,11.20
2023-03-30T18:46:56.760Z,11.20
2023-03-30T18:51:00.808Z,11.10
2023-03-30T18:55:07.967Z,11.00
2023-03-30T18:59:11.318Z,10.90
2023-03-30T19:03:15.662Z,10.80
2023-03-30T19:07:24.169Z,10.60
2023-03-30T19:11:28.990Z,10.50
2023-03-30T19:15:39.558Z,10.40
2023-03-30T19:19:44.177Z,10.30
2023-03-30T19:23:47.512Z,10.20
2023-03-30T19:28:02.685Z,10.10
2023-03-30T19:32:10.152Z,9.90
2023-03-30T19:36:17.116Z,9.70
2023-03-30T19:40:25.148Z,9.60
2023-03-30T19:44:32.322Z,9.50
2023-03-30T19:48:35.474Z,9.30
2023-03-30T19:52:41.054Z,9.10
2023-03-30T19:56:44.552Z,9.00
2023-03-30T20:00:51.374Z,8.90
2023-03-30T20:04:58.544Z,8.90
2023-03-30T20:09:08.210Z,8.90
2023-03-30T20:13:11.517Z,8.90
2023-03-30T20:17:18.426Z,8.80
2023-03-30T20:21:22.726Z,8.80
2023-03-30T20:25:26.099Z,8.70
2023-03-30T20:29:32.419Z,8.60
2023-03-30T20:33:38.788Z,8.60
2023-03-30T20:37:41.892Z,8.60
2023-03-30T20:41:45.580Z,8.60
2023-03-30T20:45:57.763Z,8.50
2023-03-30T20:50:04.130Z,8.50
2023-03-30T20:54:10.463Z,8.50
2023-03-30T20:58:16.814Z,8.60
2023-03-30T21:02:20.543Z,8.60
2023-03-30T21:06:27.528Z,8.50
2023-03-30T21:10:36.298Z,8.50
2023-03-30T21:14:39.559Z,8.50
2023-03-30T21:18:44.636Z,8.50
2023-03-30T21:22:51.589Z,8.50
2023-03-30T21:26:55.628Z,8.50
2023-03-30T21:31:01.081Z,8.40
2023-03-30T21:35:04.227Z,8.30
2023-03-30T21:39:08.626Z,8.20
2023-03-30T21:43:11.722Z,8.20
2023-03-30T21:47:17.565Z,8.10
2023-03-30T21:51:22.741Z,8.10
2023-03-30T21:55:27.190Z,8.00
2023-03-30T21:59:34.808Z,8.10
2023-03-30T22:03:38.172Z,8.10
2023-03-30T22:07:42.420Z,8.30
2023-03-30T22:11:51.288Z,8.30
2023-03-30T22:16:01.933Z,8.20
2023-03-30T22:20:07.038Z,8.10
2023-03-30T22:24:13.172Z,7.90
2023-03-30T22:28:18.079Z,7.90
2023-03-30T22:32:23.632Z,7.80
2023-03-30T22:36:31.478Z,7.80
2023-03-30T22:40:35.917Z,7.80
2023-03-30T22:44:41.274Z,7.80
2023-03-30T22:48:44.281Z,7.80
2023-03-30T22:52:47.477Z,7.90
2023-03-30T22:56:54.347Z,7.80
2023-03-30T23:01:07.113Z,7.80
2023-03-30T23:05:14.164Z,7.60
2023-03-30T23:09:17.807Z,7.40
2023-03-30T23:13:22.385Z,7.20
2023-03-30T23:17:27.564Z,7.20
2023-03-30T23:21:34.632Z,7.00
2023-03-30T23:25:38.091Z,7.00
2023-03-30T23:29:43.007Z,7.00
2023-03-30T23:33:47.571Z,6.90
2023-03-30T23:37:52.788Z,6.90
2023-03-30T23:41:56.642Z,6.90
2023-03-30T23:45:59.840Z,6.80
2023-03-30T23:50:04.654Z,6.70
2023-03-30T23:54:08.011Z,6.70
2023-03-30T23:58:12.332Z,6.70
